sensor_id;sensor_type;location;lat;lon;timestamp;P1;durP1;ratioP1;P2;durP2;ratioP2
58470;SDS011;44258;51.288;12.068;2022-12-17T00:02:21;60.10;;;19.35;;
58470;SDS011;44258;51.288;12.068;2022-12-17T00:05:06;47.55;;;18.70;;
58470;SDS011;44258;51.288;12.068;2022-12-17T00:07:55;49.67;;;18.88;;
58470;SDS011;44258;51.288;12.068;2022-12-17T00:10:39;49.70;;;17.65;;
58470;SDS011;44258;51.288;12.068;2022-12-17T00:13:24;48.20;;;19.73;;
58470;SDS011;44258;51.288;12.068;2022-12-17T00:16:08;50.65;;;20.80;;
58470;SDS011;44258;51.288;12.068;2022-12-17T00:18:53;45.38;;;18.30;;
58470;SDS011;44258;51.288;12.068;2022-12-17T00:21:37;42.63;;;17.50;;
58470;SDS011;44258;51.288;12.068;2022-12-17T00:24:22;45.55;;;18.70;;
58470;SDS011;44258;51.288;12.068;2022-12-17T00:27:07;43.38;;;18.77;;
58470;SDS011;44258;51.288;12.068;2022-12-17T00:29:51;48.15;;;19.55;;
58470;SDS011;44258;51.288;12.068;2022-12-17T00:32:36;35.10;;;16.80;;
58470;SDS011;44258;51.288;12.068;2022-12-17T00:35:20;46.53;;;19.52;;
58470;SDS011;44258;51.288;12.068;2022-12-17T00:38:04;41.75;;;17.92;;
58470;SDS011;44258;51.288;12.068;2022-12-17T00:40:49;44.28;;;20.38;;
58470;SDS011;44258;51.288;12.068;2022-12-17T00:43:44;40.45;;;17.73;;
58470;SDS011;44258;51.288;12.068;2022-12-17T00:46:28;42.67;;;17.73;;
58470;SDS011;44258;51.288;12.068;2022-12-17T00:49:12;45.92;;;17.55;;
58470;SDS011;44258;51.288;12.068;2022-12-17T00:51:57;43.85;;;19.25;;
58470;SDS011;44258;51.288;12.068;2022-12-17T00:54:41;46.53;;;19.35;;
58470;SDS011;44258;51.288;12.068;2022-12-17T00:57:26;46.03;;;18.05;;
58470;SDS011;44258;51.288;12.068;2022-12-17T01:00:13;40.05;;;16.92;;
58470;SDS011;44258;51.288;12.068;2022-12-17T01:03:03;52.67;;;20.20;;
58470;SDS011;44258;51.288;12.068;2022-12-17T01:05:48;50.83;;;21.48;;
58470;SDS011;44258;51.288;12.068;2022-12-17T01:08:33;36.58;;;17.15;;
58470;SDS011;44258;51.288;12.068;2022-12-17T01:11:18;42.53;;;17.85;;
58470;SDS011;44258;51.288;12.068;2022-12-17T01:14:14;45.50;;;17.88;;
58470;SDS011;44258;51.288;12.068;2022-12-17T01:17:00;46.95;;;17.90;;
58470;SDS011;44258;51.288;12.068;2022-12-17T01:19:44;49.45;;;19.75;;
58470;SDS011;44258;51.288;12.068;2022-12-17T01:22:44;37.85;;;17.27;;
58470;SDS011;44258;51.288;12.068;2022-12-17T01:25:29;40.63;;;16.08;;
58470;SDS011;44258;51.288;12.068;2022-12-17T01:28:19;46.03;;;19.40;;
58470;SDS011;44258;51.288;12.068;2022-12-17T01:31:07;49.10;;;19.05;;
58470;SDS011;44258;51.288;12.068;2022-12-17T01:33:53;48.70;;;19.05;;
58470;SDS011;44258;51.288;12.068;2022-12-17T01:36:33;45.17;;;19.23;;
58470;SDS011;44258;51.288;12.068;2022-12-17T01:39:17;53.92;;;21.55;;
58470;SDS011;44258;51.288;12.068;2022-12-17T01:42:02;45.88;;;18.42;;
58470;SDS011;44258;51.288;12.068;2022-12-17T01:44:58;49.55;;;19.10;;
58470;SDS011;44258;51.288;12.068;2022-12-17T01:47:43;54.20;;;19.65;;
58470;SDS011;44258;51.288;12.068;2022-12-17T01:50:35;45.08;;;20.55;;
58470;SDS011;44258;51.288;12.068;2022-12-17T01:53:23;40.35;;;18.17;;
58470;SDS011;44258;51.288;12.068;2022-12-17T01:56:10;53.17;;;19.30;;
58470;SDS011;44258;51.288;12.068;2022-12-17T01:58:55;46.30;;;19.30;;
58470;SDS011;44258;51.288;12.068;2022-12-17T02:01:40;44.33;;;19.40;;
58470;SDS011;44258;51.288;12.068;2022-12-17T02:04:24;50.80;;;19.10;;
58470;SDS011;44258;51.288;12.068;2022-12-17T02:07:14;51.88;;;20.20;;
58470;SDS011;44258;51.288;12.068;2022-12-17T02:10:15;47.60;;;18.88;;
58470;SDS011;44258;51.288;12.068;2022-12-17T02:13:06;44.47;;;18.02;;
58470;SDS011;44258;51.288;12.068;2022-12-17T02:15:58;48.00;;;17.85;;
58470;SDS011;44258;51.288;12.068;2022-12-17T02:18:52;50.58;;;19.48;;
58470;SDS011;44258;51.288;12.068;2022-12-17T02:21:42;44.58;;;18.83;;
58470;SDS011;44258;51.288;12.068;2022-12-17T02:24:41;46.55;;;18.85;;
58470;SDS011;44258;51.288;12.068;2022-12-17T02:27:32;49.55;;;19.70;;
58470;SDS011;44258;51.288;12.068;2022-12-17T02:30:18;44.90;;;17.40;;
58470;SDS011;44258;51.288;12.068;2022-12-17T02:33:02;44.78;;;17.15;;
58470;SDS011;44258;51.288;12.068;2022-12-17T02:35:48;44.03;;;19.08;;
58470;SDS011;44258;51.288;12.068;2022-12-17T02:38:36;54.75;;;20.88;;
58470;SDS011;44258;51.288;12.068;2022-12-17T02:41:21;40.83;;;16.65;;
58470;SDS011;44258;51.288;12.068;2022-12-17T02:44:06;41.95;;;18.23;;
58470;SDS011;44258;51.288;12.068;2022-12-17T02:46:51;42.28;;;18.98;;
58470;SDS011;44258;51.288;12.068;2022-12-17T02:49:37;52.28;;;19.85;;
58470;SDS011;44258;51.288;12.068;2022-12-17T02:52:21;50.47;;;19.20;;
58470;SDS011;44258;51.288;12.068;2022-12-17T02:55:07;41.60;;;16.27;;
58470;SDS011;44258;51.288;12.068;2022-12-17T02:57:52;37.42;;;15.20;;
58470;SDS011;44258;51.288;12.068;2022-12-17T03:00:37;47.65;;;19.42;;
58470;SDS011;44258;51.288;12.068;2022-12-17T03:03:22;42.25;;;18.40;;
58470;SDS011;44258;51.288;12.068;2022-12-17T03:06:06;37.33;;;16.10;;
58470;SDS011;44258;51.288;12.068;2022-12-17T03:08:50;45.60;;;17.05;;
58470;SDS011;44258;51.288;12.068;2022-12-17T03:11:34;50.00;;;19.08;;
58470;SDS011;44258;51.288;12.068;2022-12-17T03:14:19;43.53;;;17.35;;
58470;SDS011;44258;51.288;12.068;2022-12-17T03:17:05;42.03;;;18.90;;
58470;SDS011;44258;51.288;12.068;2022-12-17T03:19:49;48.30;;;19.35;;
58470;SDS011;44258;51.288;12.068;2022-12-17T03:22:33;42.00;;;18.05;;
58470;SDS011;44258;51.288;12.068;2022-12-17T03:25:17;42.67;;;18.40;;
58470;SDS011;44258;51.288;12.068;2022-12-17T03:28:02;39.05;;;16.77;;
58470;SDS011;44258;51.288;12.068;2022-12-17T03:30:48;41.00;;;17.58;;
58470;SDS011;44258;51.288;12.068;2022-12-17T03:33:33;42.15;;;17.48;;
58470;SDS011;44258;51.288;12.068;2022-12-17T03:36:17;45.88;;;18.10;;
58470;SDS011;44258;51.288;12.068;2022-12-17T03:39:02;44.95;;;17.73;;
58470;SDS011;44258;51.288;12.068;2022-12-17T03:41:46;42.58;;;16.77;;
58470;SDS011;44258;51.288;12.068;2022-12-17T03:44:33;44.08;;;17.85;;
58470;SDS011;44258;51.288;12.068;2022-12-17T03:47:18;46.35;;;17.67;;
58470;SDS011;44258;51.288;12.068;2022-12-17T03:50:04;44.28;;;17.83;;
58470;SDS011;44258;51.288;12.068;2022-12-17T03:52:54;45.38;;;16.42;;
58470;SDS011;44258;51.288;12.068;2022-12-17T03:55:38;46.40;;;20.92;;
58470;SDS011;44258;51.288;12.068;2022-12-17T03:58:22;42.28;;;19.30;;
58470;SDS011;44258;51.288;12.068;2022-12-17T04:01:07;55.40;;;19.88;;
58470;SDS011;44258;51.288;12.068;2022-12-17T04:03:52;50.65;;;19.20;;
58470;SDS011;44258;51.288;12.068;2022-12-17T04:06:37;39.03;;;16.05;;
58470;SDS011;44258;51.288;12.068;2022-12-17T04:09:22;36.17;;;14.27;;
58470;SDS011;44258;51.288;12.068;2022-12-17T04:12:09;43.58;;;17.52;;
58470;SDS011;44258;51.288;12.068;2022-12-17T04:14:53;47.08;;;17.40;;
58470;SDS011;44258;51.288;12.068;2022-12-17T04:17:38;35.15;;;15.90;;
58470;SDS011;44258;51.288;12.068;2022-12-17T04:20:22;47.55;;;17.17;;
58470;SDS011;44258;51.288;12.068;2022-12-17T04:23:08;43.90;;;18.02;;
58470;SDS011;44258;51.288;12.068;2022-12-17T04:25:52;40.80;;;17.48;;
58470;SDS011;44258;51.288;12.068;2022-12-17T04:28:36;44.97;;;16.38;;
58470;SDS011;44258;51.288;12.068;2022-12-17T04:31:20;35.45;;;14.18;;
58470;SDS011;44258;51.288;12.068;2022-12-17T04:34:05;41.95;;;14.90;;
58470;SDS011;44258;51.288;12.068;2022-12-17T04:36:49;40.55;;;16.73;;
58470;SDS011;44258;51.288;12.068;2022-12-17T04:39:35;43.05;;;18.55;;
58470;SDS011;44258;51.288;12.068;2022-12-17T04:42:19;41.65;;;15.45;;
58470;SDS011;44258;51.288;12.068;2022-12-17T04:45:04;34.25;;;14.45;;
58470;SDS011;44258;51.288;12.068;2022-12-17T04:47:48;38.85;;;15.57;;
58470;SDS011;44258;51.288;12.068;2022-12-17T04:50:33;46.50;;;17.15;;
58470;SDS011;44258;51.288;12.068;2022-12-17T04:53:17;43.42;;;16.48;;
58470;SDS011;44258;51.288;12.068;2022-12-17T04:56:03;35.53;;;14.38;;
58470;SDS011;44258;51.288;12.068;2022-12-17T04:58:49;44.35;;;17.17;;
58470;SDS011;44258;51.288;12.068;2022-12-17T05:01:33;36.15;;;14.38;;
58470;SDS011;44258;51.288;12.068;2022-12-17T05:04:18;45.50;;;15.70;;
58470;SDS011;44258;51.288;12.068;2022-12-17T05:07:02;40.53;;;15.98;;
58470;SDS011;44258;51.288;12.068;2022-12-17T05:09:48;41.78;;;15.43;;
58470;SDS011;44258;51.288;12.068;2022-12-17T05:12:35;36.38;;;15.25;;
58470;SDS011;44258;51.288;12.068;2022-12-17T05:15:19;45.78;;;17.85;;
58470;SDS011;44258;51.288;12.068;2022-12-17T05:18:04;33.22;;;14.57;;
58470;SDS011;44258;51.288;12.068;2022-12-17T05:20:49;35.17;;;14.52;;
58470;SDS011;44258;51.288;12.068;2022-12-17T05:23:49;39.33;;;14.70;;
58470;SDS011;44258;51.288;12.068;2022-12-17T05:26:33;37.40;;;16.10;;
58470;SDS011;44258;51.288;12.068;2022-12-17T05:29:21;35.28;;;14.57;;
58470;SDS011;44258;51.288;12.068;2022-12-17T05:32:06;41.97;;;15.53;;
58470;SDS011;44258;51.288;12.068;2022-12-17T05:34:50;37.13;;;13.52;;
58470;SDS011;44258;51.288;12.068;2022-12-17T05:37:34;34.75;;;15.57;;
58470;SDS011;44258;51.288;12.068;2022-12-17T05:40:19;36.45;;;15.63;;
58470;SDS011;44258;51.288;12.068;2022-12-17T05:43:04;41.58;;;17.02;;
58470;SDS011;44258;51.288;12.068;2022-12-17T05:45:51;48.43;;;17.03;;
58470;SDS011;44258;51.288;12.068;2022-12-17T05:48:35;41.72;;;15.98;;
58470;SDS011;44258;51.288;12.068;2022-12-17T05:51:19;38.10;;;15.45;;
58470;SDS011;44258;51.288;12.068;2022-12-17T05:54:05;42.83;;;15.98;;
58470;SDS011;44258;51.288;12.068;2022-12-17T05:56:49;41.50;;;15.95;;
58470;SDS011;44258;51.288;12.068;2022-12-17T05:59:34;38.67;;;15.00;;
58470;SDS011;44258;51.288;12.068;2022-12-17T06:02:20;38.85;;;14.60;;
58470;SDS011;44258;51.288;12.068;2022-12-17T06:05:04;40.55;;;15.25;;
58470;SDS011;44258;51.288;12.068;2022-12-17T06:07:48;42.70;;;16.70;;
58470;SDS011;44258;51.288;12.068;2022-12-17T06:10:32;34.08;;;15.00;;
58470;SDS011;44258;51.288;12.068;2022-12-17T06:13:16;34.63;;;13.38;;
58470;SDS011;44258;51.288;12.068;2022-12-17T06:16:01;41.35;;;14.85;;
58470;SDS011;44258;51.288;12.068;2022-12-17T06:18:47;38.13;;;14.75;;
58470;SDS011;44258;51.288;12.068;2022-12-17T06:21:31;29.67;;;13.68;;
58470;SDS011;44258;51.288;12.068;2022-12-17T06:24:15;37.58;;;13.88;;
58470;SDS011;44258;51.288;12.068;2022-12-17T06:27:00;40.40;;;15.20;;
58470;SDS011;44258;51.288;12.068;2022-12-17T06:29:44;33.88;;;13.52;;
58470;SDS011;44258;51.288;12.068;2022-12-17T06:32:28;37.65;;;14.80;;
58470;SDS011;44258;51.288;12.068;2022-12-17T06:35:14;34.92;;;14.43;;
58470;SDS011;44258;51.288;12.068;2022-12-17T06:37:59;31.52;;;13.15;;
58470;SDS011;44258;51.288;12.068;2022-12-17T06:40:45;33.83;;;15.02;;
58470;SDS011;44258;51.288;12.068;2022-12-17T06:43:29;34.13;;;14.25;;
58470;SDS011;44258;51.288;12.068;2022-12-17T06:46:14;31.63;;;11.38;;
58470;SDS011;44258;51.288;12.068;2022-12-17T06:48:58;37.30;;;14.73;;
58470;SDS011;44258;51.288;12.068;2022-12-17T06:51:44;39.22;;;14.27;;
58470;SDS011;44258;51.288;12.068;2022-12-17T06:54:28;33.30;;;13.32;;
58470;SDS011;44258;51.288;12.068;2022-12-17T06:57:13;37.20;;;13.93;;
58470;SDS011;44258;51.288;12.068;2022-12-17T06:59:57;37.90;;;13.82;;
58470;SDS011;44258;51.288;12.068;2022-12-17T07:02:41;40.95;;;15.15;;
58470;SDS011;44258;51.288;12.068;2022-12-17T07:05:26;36.28;;;15.43;;
58470;SDS011;44258;51.288;12.068;2022-12-17T07:08:12;34.22;;;13.55;;
58470;SDS011;44258;51.288;12.068;2022-12-17T07:10:57;33.60;;;13.25;;
58470;SDS011;44258;51.288;12.068;2022-12-17T07:13:42;32.75;;;14.50;;
58470;SDS011;44258;51.288;12.068;2022-12-17T07:16:26;42.45;;;14.77;;
58470;SDS011;44258;51.288;12.068;2022-12-17T07:19:10;35.95;;;15.02;;
58470;SDS011;44258;51.288;12.068;2022-12-17T07:21:55;36.03;;;15.23;;
58470;SDS011;44258;51.288;12.068;2022-12-17T07:24:41;41.28;;;15.13;;
58470;SDS011;44258;51.288;12.068;2022-12-17T07:27:25;37.47;;;15.85;;
58470;SDS011;44258;51.288;12.068;2022-12-17T07:30:10;42.75;;;16.92;;
58470;SDS011;44258;51.288;12.068;2022-12-17T07:32:58;33.35;;;14.20;;
58470;SDS011;44258;51.288;12.068;2022-12-17T07:35:42;42.72;;;15.50;;
58470;SDS011;44258;51.288;12.068;2022-12-17T07:38:27;40.45;;;15.23;;
58470;SDS011;44258;51.288;12.068;2022-12-17T07:41:13;31.58;;;14.00;;
58470;SDS011;44258;51.288;12.068;2022-12-17T07:43:57;37.92;;;13.93;;
58470;SDS011;44258;51.288;12.068;2022-12-17T07:46:42;38.03;;;14.80;;
58470;SDS011;44258;51.288;12.068;2022-12-17T07:49:26;46.58;;;15.90;;
58470;SDS011;44258;51.288;12.068;2022-12-17T07:52:10;45.03;;;16.50;;
58470;SDS011;44258;51.288;12.068;2022-12-17T07:54:55;29.63;;;14.25;;
58470;SDS011;44258;51.288;12.068;2022-12-17T07:57:41;41.45;;;14.55;;
58470;SDS011;44258;51.288;12.068;2022-12-17T08:00:25;39.30;;;15.40;;
58470;SDS011;44258;51.288;12.068;2022-12-17T08:03:09;37.28;;;14.40;;
58470;SDS011;44258;51.288;12.068;2022-12-17T08:05:55;41.67;;;16.13;;
58470;SDS011;44258;51.288;12.068;2022-12-17T08:08:40;45.13;;;16.25;;
58470;SDS011;44258;51.288;12.068;2022-12-17T08:11:24;39.97;;;16.45;;
58470;SDS011;44258;51.288;12.068;2022-12-17T08:14:11;40.35;;;14.88;;
58470;SDS011;44258;51.288;12.068;2022-12-17T08:16:55;35.72;;;14.30;;
58470;SDS011;44258;51.288;12.068;2022-12-17T08:19:39;39.55;;;15.90;;
58470;SDS011;44258;51.288;12.068;2022-12-17T08:22:23;42.78;;;15.73;;
58470;SDS011;44258;51.288;12.068;2022-12-17T08:25:04;40.33;;;15.23;;
58470;SDS011;44258;51.288;12.068;2022-12-17T08:27:54;40.83;;;15.18;;
58470;SDS011;44258;51.288;12.068;2022-12-17T08:30:41;38.13;;;16.20;;
58470;SDS011;44258;51.288;12.068;2022-12-17T08:33:25;40.83;;;17.13;;
58470;SDS011;44258;51.288;12.068;2022-12-17T08:36:09;38.47;;;15.68;;
58470;SDS011;44258;51.288;12.068;2022-12-17T08:38:54;46.70;;;16.58;;
58470;SDS011;44258;51.288;12.068;2022-12-17T08:41:49;40.63;;;14.43;;
58470;SDS011;44258;51.288;12.068;2022-12-17T08:44:34;36.10;;;14.75;;
58470;SDS011;44258;51.288;12.068;2022-12-17T08:47:20;51.92;;;17.02;;
58470;SDS011;44258;51.288;12.068;2022-12-17T08:50:05;36.05;;;14.73;;
58470;SDS011;44258;51.288;12.068;2022-12-17T08:52:55;42.42;;;15.88;;
58470;SDS011;44258;51.288;12.068;2022-12-17T08:55:40;39.75;;;14.13;;
58470;SDS011;44258;51.288;12.068;2022-12-17T08:58:24;42.38;;;15.27;;
58470;SDS011;44258;51.288;12.068;2022-12-17T09:01:21;44.83;;;18.33;;
58470;SDS011;44258;51.288;12.068;2022-12-17T09:04:03;48.30;;;17.67;;
58470;SDS011;44258;51.288;12.068;2022-12-17T09:06:48;47.20;;;18.30;;
58470;SDS011;44258;51.288;12.068;2022-12-17T09:09:32;38.55;;;16.30;;
58470;SDS011;44258;51.288;12.068;2022-12-17T09:12:16;42.35;;;15.93;;
58470;SDS011;44258;51.288;12.068;2022-12-17T09:15:01;43.70;;;16.73;;
58470;SDS011;44258;51.288;12.068;2022-12-17T09:17:45;45.10;;;16.38;;
58470;SDS011;44258;51.288;12.068;2022-12-17T09:20:31;43.80;;;16.65;;
58470;SDS011;44258;51.288;12.068;2022-12-17T09:23:16;47.13;;;18.02;;
58470;SDS011;44258;51.288;12.068;2022-12-17T09:26:01;46.35;;;18.27;;
58470;SDS011;44258;51.288;12.068;2022-12-17T09:28:46;49.80;;;18.60;;
58470;SDS011;44258;51.288;12.068;2022-12-17T09:31:30;57.28;;;21.65;;
58470;SDS011;44258;51.288;12.068;2022-12-17T09:34:15;52.83;;;21.38;;
58470;SDS011;44258;51.288;12.068;2022-12-17T09:37:01;46.33;;;18.63;;
58470;SDS011;44258;51.288;12.068;2022-12-17T09:39:45;39.13;;;16.23;;
58470;SDS011;44258;51.288;12.068;2022-12-17T09:45:22;51.35;;;17.90;;
58470;SDS011;44258;51.288;12.068;2022-12-17T09:48:23;43.10;;;15.57;;
58470;SDS011;44258;51.288;12.068;2022-12-17T09:51:18;39.78;;;16.17;;
58470;SDS011;44258;51.288;12.068;2022-12-17T09:54:09;43.50;;;16.10;;
58470;SDS011;44258;51.288;12.068;2022-12-17T09:56:58;37.65;;;16.23;;
58470;SDS011;44258;51.288;12.068;2022-12-17T09:59:45;43.63;;;16.15;;
58470;SDS011;44258;51.288;12.068;2022-12-17T10:02:30;41.17;;;16.38;;
58470;SDS011;44258;51.288;12.068;2022-12-17T10:05:15;44.55;;;18.20;;
58470;SDS011;44258;51.288;12.068;2022-12-17T10:08:04;46.25;;;17.92;;
58470;SDS011;44258;51.288;12.068;2022-12-17T10:10:51;41.47;;;17.17;;
58470;SDS011;44258;51.288;12.068;2022-12-17T10:13:36;43.03;;;16.17;;
58470;SDS011;44258;51.288;12.068;2022-12-17T10:16:23;40.30;;;16.05;;
58470;SDS011;44258;51.288;12.068;2022-12-17T10:19:13;44.58;;;16.30;;
58470;SDS011;44258;51.288;12.068;2022-12-17T10:22:09;39.33;;;15.20;;
58470;SDS011;44258;51.288;12.068;2022-12-17T10:24:51;43.17;;;16.52;;
58470;SDS011;44258;51.288;12.068;2022-12-17T10:27:37;44.00;;;16.92;;
58470;SDS011;44258;51.288;12.068;2022-12-17T10:30:22;42.47;;;16.63;;
58470;SDS011;44258;51.288;12.068;2022-12-17T10:33:06;44.20;;;18.02;;
58470;SDS011;44258;51.288;12.068;2022-12-17T10:35:59;45.90;;;16.65;;
58470;SDS011;44258;51.288;12.068;2022-12-17T10:38:51;41.58;;;16.90;;
58470;SDS011;44258;51.288;12.068;2022-12-17T10:41:39;51.95;;;18.10;;
58470;SDS011;44258;51.288;12.068;2022-12-17T10:44:26;48.33;;;18.48;;
58470;SDS011;44258;51.288;12.068;2022-12-17T10:47:12;47.38;;;19.95;;
58470;SDS011;44258;51.288;12.068;2022-12-17T10:49:58;38.07;;;17.87;;
58470;SDS011;44258;51.288;12.068;2022-12-17T10:52:47;47.60;;;17.88;;
58470;SDS011;44258;51.288;12.068;2022-12-17T10:55:32;43.63;;;18.63;;
58470;SDS011;44258;51.288;12.068;2022-12-17T10:58:18;44.08;;;18.30;;
58470;SDS011;44258;51.288;12.068;2022-12-17T11:01:09;41.10;;;17.42;;
58470;SDS011;44258;51.288;12.068;2022-12-17T11:03:56;50.83;;;20.13;;
58470;SDS011;44258;51.288;12.068;2022-12-17T11:06:42;52.60;;;19.33;;
58470;SDS011;44258;51.288;12.068;2022-12-17T11:09:31;48.22;;;20.05;;
58470;SDS011;44258;51.288;12.068;2022-12-17T11:12:24;46.47;;;20.23;;
58470;SDS011;44258;51.288;12.068;2022-12-17T11:15:18;50.22;;;19.67;;
58470;SDS011;44258;51.288;12.068;2022-12-17T11:18:08;43.78;;;18.80;;
58470;SDS011;44258;51.288;12.068;2022-12-17T11:21:01;46.35;;;19.10;;
58470;SDS011;44258;51.288;12.068;2022-12-17T11:23:49;49.97;;;21.85;;
58470;SDS011;44258;51.288;12.068;2022-12-17T11:26:36;50.72;;;21.65;;
58470;SDS011;44258;51.288;12.068;2022-12-17T11:29:24;54.25;;;21.60;;
58470;SDS011;44258;51.288;12.068;2022-12-17T11:32:13;52.80;;;21.77;;
58470;SDS011;44258;51.288;12.068;2022-12-17T11:35:17;43.17;;;19.73;;
58470;SDS011;44258;51.288;12.068;2022-12-17T11:38:09;48.88;;;21.98;;
58470;SDS011;44258;51.288;12.068;2022-12-17T11:41:02;48.95;;;19.98;;
58470;SDS011;44258;51.288;12.068;2022-12-17T11:43:55;51.03;;;18.38;;
58470;SDS011;44258;51.288;12.068;2022-12-17T11:46:47;51.17;;;20.63;;
58470;SDS011;44258;51.288;12.068;2022-12-17T11:49:42;50.28;;;19.75;;
58470;SDS011;44258;51.288;12.068;2022-12-17T11:52:36;42.50;;;18.70;;
58470;SDS011;44258;51.288;12.068;2022-12-17T11:55:29;46.40;;;20.13;;
58470;SDS011;44258;51.288;12.068;2022-12-17T11:58:21;54.92;;;21.48;;
58470;SDS011;44258;51.288;12.068;2022-12-17T12:01:13;44.20;;;19.13;;
58470;SDS011;44258;51.288;12.068;2022-12-17T12:04:09;52.30;;;21.00;;
58470;SDS011;44258;51.288;12.068;2022-12-17T12:07:08;48.47;;;19.20;;
58470;SDS011;44258;51.288;12.068;2022-12-17T12:10:01;46.08;;;19.88;;
58470;SDS011;44258;51.288;12.068;2022-12-17T12:12:52;55.45;;;22.50;;
58470;SDS011;44258;51.288;12.068;2022-12-17T12:15:46;45.03;;;19.58;;
58470;SDS011;44258;51.288;12.068;2022-12-17T12:18:39;51.47;;;20.25;;
58470;SDS011;44258;51.288;12.068;2022-12-17T12:21:34;45.67;;;19.70;;
58470;SDS011;44258;51.288;12.068;2022-12-17T12:24:30;51.90;;;21.13;;
58470;SDS011;44258;51.288;12.068;2022-12-17T12:27:29;51.22;;;23.17;;
58470;SDS011;44258;51.288;12.068;2022-12-17T12:30:22;44.17;;;19.00;;
58470;SDS011;44258;51.288;12.068;2022-12-17T12:33:16;53.03;;;20.60;;
58470;SDS011;44258;51.288;12.068;2022-12-17T12:36:10;48.28;;;21.13;;
58470;SDS011;44258;51.288;12.068;2022-12-17T12:38:57;47.83;;;19.67;;
58470;SDS011;44258;51.288;12.068;2022-12-17T12:41:44;49.25;;;20.83;;
58470;SDS011;44258;51.288;12.068;2022-12-17T12:44:36;70.65;;;29.70;;
58470;SDS011;44258;51.288;12.068;2022-12-17T12:47:31;50.67;;;19.88;;
58470;SDS011;44258;51.288;12.068;2022-12-17T12:50:37;47.83;;;21.02;;
58470;SDS011;44258;51.288;12.068;2022-12-17T12:53:31;48.20;;;21.80;;
58470;SDS011;44258;51.288;12.068;2022-12-17T12:56:25;50.08;;;20.00;;
58470;SDS011;44258;51.288;12.068;2022-12-17T12:59:15;53.70;;;19.85;;
58470;SDS011;44258;51.288;12.068;2022-12-17T13:02:15;44.30;;;19.73;;
58470;SDS011;44258;51.288;12.068;2022-12-17T13:05:19;45.40;;;19.42;;
58470;SDS011;44258;51.288;12.068;2022-12-17T13:08:00;48.85;;;19.88;;
58470;SDS011;44258;51.288;12.068;2022-12-17T13:10:30;47.72;;;20.70;;
58470;SDS011;44258;51.288;12.068;2022-12-17T13:12:59;52.30;;;20.27;;
58470;SDS011;44258;51.288;12.068;2022-12-17T13:15:39;55.03;;;21.80;;
58470;SDS011;44258;51.288;12.068;2022-12-17T13:18:16;59.45;;;23.52;;
58470;SDS011;44258;51.288;12.068;2022-12-17T13:20:59;55.08;;;21.70;;
58470;SDS011;44258;51.288;12.068;2022-12-17T13:23:30;50.38;;;19.63;;
58470;SDS011;44258;51.288;12.068;2022-12-17T13:31:25;64.40;;;23.40;;
58470;SDS011;44258;51.288;12.068;2022-12-17T13:34:00;45.97;;;16.95;;
58470;SDS011;44258;51.288;12.068;2022-12-17T13:36:37;59.88;;;23.00;;
58470;SDS011;44258;51.288;12.068;2022-12-17T13:39:16;56.42;;;21.20;;
58470;SDS011;44258;51.288;12.068;2022-12-17T13:41:54;64.80;;;24.95;;
58470;SDS011;44258;51.288;12.068;2022-12-17T13:44:21;53.20;;;22.52;;
58470;SDS011;44258;51.288;12.068;2022-12-17T13:46:51;63.80;;;23.02;;
58470;SDS011;44258;51.288;12.068;2022-12-17T13:49:21;67.00;;;26.35;;
58470;SDS011;44258;51.288;12.068;2022-12-17T13:51:59;60.05;;;22.50;;
58470;SDS011;44258;51.288;12.068;2022-12-17T13:54:27;65.75;;;24.58;;
58470;SDS011;44258;51.288;12.068;2022-12-17T13:56:54;55.03;;;22.38;;
58470;SDS011;44258;51.288;12.068;2022-12-17T13:59:31;70.75;;;24.98;;
58470;SDS011;44258;51.288;12.068;2022-12-17T14:01:59;55.67;;;21.52;;
58470;SDS011;44258;51.288;12.068;2022-12-17T14:04:27;62.28;;;21.80;;
58470;SDS011;44258;51.288;12.068;2022-12-17T14:06:56;61.95;;;22.85;;
58470;SDS011;44258;51.288;12.068;2022-12-17T14:09:27;58.47;;;21.65;;
58470;SDS011;44258;51.288;12.068;2022-12-17T14:11:59;56.05;;;23.33;;
58470;SDS011;44258;51.288;12.068;2022-12-17T14:14:45;63.80;;;24.30;;
58470;SDS011;44258;51.288;12.068;2022-12-17T14:17:17;72.75;;;26.45;;
58470;SDS011;44258;51.288;12.068;2022-12-17T14:19:47;65.25;;;21.98;;
58470;SDS011;44258;51.288;12.068;2022-12-17T14:22:25;57.97;;;24.00;;
58470;SDS011;44258;51.288;12.068;2022-12-17T14:24:59;68.35;;;25.13;;
58470;SDS011;44258;51.288;12.068;2022-12-17T14:27:30;61.90;;;22.70;;
58470;SDS011;44258;51.288;12.068;2022-12-17T14:29:59;59.50;;;23.20;;
58470;SDS011;44258;51.288;12.068;2022-12-17T14:32:29;73.82;;;26.88;;
58470;SDS011;44258;51.288;12.068;2022-12-17T14:35:00;69.93;;;25.55;;
58470;SDS011;44258;51.288;12.068;2022-12-17T14:37:28;61.75;;;23.45;;
58470;SDS011;44258;51.288;12.068;2022-12-17T14:39:59;70.10;;;24.08;;
58470;SDS011;44258;51.288;12.068;2022-12-17T14:42:30;72.95;;;23.00;;
58470;SDS011;44258;51.288;12.068;2022-12-17T14:45:03;60.97;;;22.80;;
58470;SDS011;44258;51.288;12.068;2022-12-17T14:47:32;60.50;;;23.25;;
58470;SDS011;44258;51.288;12.068;2022-12-17T14:50:04;69.50;;;25.15;;
58470;SDS011;44258;51.288;12.068;2022-12-17T14:52:39;81.78;;;28.45;;
58470;SDS011;44258;51.288;12.068;2022-12-17T14:55:24;58.67;;;19.48;;
58470;SDS011;44258;51.288;12.068;2022-12-17T15:00:50;78.97;;;27.65;;
58470;SDS011;44258;51.288;12.068;2022-12-17T15:03:20;80.18;;;27.40;;
58470;SDS011;44258;51.288;12.068;2022-12-17T15:05:55;84.60;;;30.92;;
58470;SDS011;44258;51.288;12.068;2022-12-17T15:08:23;64.75;;;21.38;;
58470;SDS011;44258;51.288;12.068;2022-12-17T15:10:50;67.82;;;24.35;;
58470;SDS011;44258;51.288;12.068;2022-12-17T15:13:17;80.70;;;27.02;;
58470;SDS011;44258;51.288;12.068;2022-12-17T15:15:44;74.72;;;24.60;;
58470;SDS011;44258;51.288;12.068;2022-12-17T15:18:13;83.35;;;28.08;;
58470;SDS011;44258;51.288;12.068;2022-12-17T15:20:40;75.38;;;30.00;;
58470;SDS011;44258;51.288;12.068;2022-12-17T15:23:11;83.63;;;29.13;;
58470;SDS011;44258;51.288;12.068;2022-12-17T15:25:41;75.05;;;27.50;;
58470;SDS011;44258;51.288;12.068;2022-12-17T15:28:08;67.65;;;24.15;;
58470;SDS011;44258;51.288;12.068;2022-12-17T15:30:35;74.43;;;23.42;;
58470;SDS011;44258;51.288;12.068;2022-12-17T15:33:02;81.57;;;26.80;;
58470;SDS011;44258;51.288;12.068;2022-12-17T15:35:30;74.32;;;25.45;;
58470;SDS011;44258;51.288;12.068;2022-12-17T15:37:58;68.10;;;24.48;;
58470;SDS011;44258;51.288;12.068;2022-12-17T15:40:26;62.65;;;23.55;;
58470;SDS011;44258;51.288;12.068;2022-12-17T15:42:53;78.47;;;26.27;;
58470;SDS011;44258;51.288;12.068;2022-12-17T15:45:39;82.00;;;27.05;;
58470;SDS011;44258;51.288;12.068;2022-12-17T15:48:06;90.53;;;28.55;;
58470;SDS011;44258;51.288;12.068;2022-12-17T15:50:36;88.80;;;31.52;;
58470;SDS011;44258;51.288;12.068;2022-12-17T15:53:03;80.88;;;28.13;;
58470;SDS011;44258;51.288;12.068;2022-12-17T15:55:31;80.90;;;25.60;;
58470;SDS011;44258;51.288;12.068;2022-12-17T15:57:58;58.15;;;21.27;;